sensor_id;sensor_type;location;lat;lon;timestamp;temperature;humidity
26479;DHT22;14163;-26.142;27.992;2022-08-11T00:02:31;18.20;90.60
26479;DHT22;14163;-26.142;27.992;2022-08-11T00:05:05;18.20;90.80
26479;DHT22;14163;-26.142;27.992;2022-08-11T00:07:41;18.10;90.90
26479;DHT22;14163;-26.142;27.992;2022-08-11T00:10:12;18.10;91.20
26479;DHT22;14163;-26.142;27.992;2022-08-11T00:12:43;18.10;91.20
26479;DHT22;14163;-26.142;27.992;2022-08-11T00:15:14;18.10;91.30
26479;DHT22;14163;-26.142;27.992;2022-08-11T00:17:45;18.10;91.30
26479;DHT22;14163;-26.142;27.992;2022-08-11T00:20:16;18.20;91.30
26479;DHT22;14163;-26.142;27.992;2022-08-11T00:22:47;18.20;91.30
26479;DHT22;14163;-26.142;27.992;2022-08-11T00:25:18;18.20;91.70
26479;DHT22;14163;-26.142;27.992;2022-08-11T00:27:48;18.10;91.40
26479;DHT22;14163;-26.142;27.992;2022-08-11T00:30:19;18.10;91.50
26479;DHT22;14163;-26.142;27.992;2022-08-11T00:32:54;18.00;91.80
26479;DHT22;14163;-26.142;27.992;2022-08-11T00:35:27;18.00;91.70
26479;DHT22;14163;-26.142;27.992;2022-08-11T00:37:59;18.10;91.80
26479;DHT22;14163;-26.142;27.992;2022-08-11T00:40:36;18.10;92.00
26479;DHT22;14163;-26.142;27.992;2022-08-11T00:43:19;18.10;92.10
26479;DHT22;14163;-26.142;27.992;2022-08-11T00:46:11;18.10;92.10
26479;DHT22;14163;-26.142;27.992;2022-08-11T00:48:52;18.10;92.10
26479;DHT22;14163;-26.142;27.992;2022-08-11T00:51:37;18.10;91.90
26479;DHT22;14163;-26.142;27.992;2022-08-11T00:54:26;18.10;92.20
26479;DHT22;14163;-26.142;27.992;2022-08-11T01:00:16;18.10;92.30
26479;DHT22;14163;-26.142;27.992;2022-08-11T01:03:19;18.10;92.30
26479;DHT22;14163;-26.142;27.992;2022-08-11T01:09:34;18.10;92.30
26479;DHT22;14163;-26.142;27.992;2022-08-11T01:12:20;18.10;92.60
26479;DHT22;14163;-26.142;27.992;2022-08-11T01:30:56;17.80;93.60
26479;DHT22;14163;-26.142;27.992;2022-08-11T01:43:31;17.70;94.30
26479;DHT22;14163;-26.142;27.992;2022-08-11T01:46:27;17.70;94.40
26479;DHT22;14163;-26.142;27.992;2022-08-11T01:49:09;17.60;94.70
26479;DHT22;14163;-26.142;27.992;2022-08-11T01:51:56;17.60;94.90
26479;DHT22;14163;-26.142;27.992;2022-08-11T01:54:32;17.60;94.90
26479;DHT22;14163;-26.142;27.992;2022-08-11T01:57:18;17.50;95.10
26479;DHT22;14163;-26.142;27.992;2022-08-11T01:59:53;17.50;95.10
26479;DHT22;14163;-26.142;27.992;2022-08-11T02:02:40;17.50;95.20
26479;DHT22;14163;-26.142;27.992;2022-08-11T02:05:48;17.40;95.30
26479;DHT22;14163;-26.142;27.992;2022-08-11T02:08:43;17.50;95.30
26479;DHT22;14163;-26.142;27.992;2022-08-11T02:11:22;17.50;95.20
26479;DHT22;14163;-26.142;27.992;2022-08-11T02:14:02;17.40;95.40
26479;DHT22;14163;-26.142;27.992;2022-08-11T02:16:46;17.40;95.70
26479;DHT22;14163;-26.142;27.992;2022-08-11T02:19:23;17.40;95.80
26479;DHT22;14163;-26.142;27.992;2022-08-11T02:22:17;17.30;96.00
26479;DHT22;14163;-26.142;27.992;2022-08-11T02:25:08;17.30;96.30
26479;DHT22;14163;-26.142;27.992;2022-08-11T02:27:44;17.30;96.30
26479;DHT22;14163;-26.142;27.992;2022-08-11T02:30:19;17.30;96.30
26479;DHT22;14163;-26.142;27.992;2022-08-11T02:32:53;17.30;96.50
26479;DHT22;14163;-26.142;27.992;2022-08-11T02:35:45;17.20;96.60
26479;DHT22;14163;-26.142;27.992;2022-08-11T02:38:19;17.10;97.00
26479;DHT22;14163;-26.142;27.992;2022-08-11T02:41:02;17.00;97.20
26479;DHT22;14163;-26.142;27.992;2022-08-11T02:44:10;17.00;97.40
26479;DHT22;14163;-26.142;27.992;2022-08-11T02:46:50;17.00;97.60
26479;DHT22;14163;-26.142;27.992;2022-08-11T02:49:37;17.00;97.70
26479;DHT22;14163;-26.142;27.992;2022-08-11T02:52:32;17.00;97.90
26479;DHT22;14163;-26.142;27.992;2022-08-11T02:55:16;17.00;97.80
26479;DHT22;14163;-26.142;27.992;2022-08-11T02:57:54;17.00;97.80
26479;DHT22;14163;-26.142;27.992;2022-08-11T03:00:26;17.00;97.90
26479;DHT22;14163;-26.142;27.992;2022-08-11T03:03:12;17.00;97.90
26479;DHT22;14163;-26.142;27.992;2022-08-11T03:05:59;17.10;97.90
26479;DHT22;14163;-26.142;27.992;2022-08-11T03:08:47;17.10;98.10
26479;DHT22;14163;-26.142;27.992;2022-08-11T03:11:29;17.00;98.30
26479;DHT22;14163;-26.142;27.992;2022-08-11T03:14:21;17.00;98.30
26479;DHT22;14163;-26.142;27.992;2022-08-11T03:17:20;17.00;98.40
26479;DHT22;14163;-26.142;27.992;2022-08-11T03:20:02;16.90;98.40
26479;DHT22;14163;-26.142;27.992;2022-08-11T03:22:36;16.80;98.80
26479;DHT22;14163;-26.142;27.992;2022-08-11T03:25:13;16.80;99.20
26479;DHT22;14163;-26.142;27.992;2022-08-11T03:27:51;16.70;99.20
26479;DHT22;14163;-26.142;27.992;2022-08-11T03:30:30;16.60;99.80
26479;DHT22;14163;-26.142;27.992;2022-08-11T03:33:17;16.70;99.70
26479;DHT22;14163;-26.142;27.992;2022-08-11T03:36:27;16.70;99.70
26479;DHT22;14163;-26.142;27.992;2022-08-11T03:39:11;16.70;99.90
26479;DHT22;14163;-26.142;27.992;2022-08-11T03:41:48;16.70;99.90
26479;DHT22;14163;-26.142;27.992;2022-08-11T03:44:38;16.70;99.90
26479;DHT22;14163;-26.142;27.992;2022-08-11T03:47:28;16.70;99.90
26479;DHT22;14163;-26.142;27.992;2022-08-11T03:50:09;16.80;99.60
26479;DHT22;14163;-26.142;27.992;2022-08-11T03:52:48;16.80;99.70
26479;DHT22;14163;-26.142;27.992;2022-08-11T03:55:29;16.70;99.90
26479;DHT22;14163;-26.142;27.992;2022-08-11T04:01:55;16.70;99.70
26479;DHT22;14163;-26.142;27.992;2022-08-11T04:08:05;16.70;99.90
26479;DHT22;14163;-26.142;27.992;2022-08-11T04:11:07;16.70;99.90
26479;DHT22;14163;-26.142;27.992;2022-08-11T04:17:26;16.60;99.70
26479;DHT22;14163;-26.142;27.992;2022-08-11T04:29:39;16.50;99.90
26479;DHT22;14163;-26.142;27.992;2022-08-11T04:32:38;16.50;99.90
26479;DHT22;14163;-26.142;27.992;2022-08-11T04:35:30;16.40;99.90
26479;DHT22;14163;-26.142;27.992;2022-08-11T04:45:07;16.40;99.90
26479;DHT22;14163;-26.142;27.992;2022-08-11T04:47:57;16.30;99.90
26479;DHT22;14163;-26.142;27.992;2022-08-11T04:51:07;16.30;
26479;DHT22;14163;-26.142;27.992;2022-08-11T04:54:02;16.30;99.90
26479;DHT22;14163;-26.142;27.992;2022-08-11T04:56:51;16.30;99.90
26479;DHT22;14163;-26.142;27.992;2022-08-11T05:00:00;16.30;99.90
26479;DHT22;14163;-26.142;27.992;2022-08-11T05:06:20;16.40;99.90
26479;DHT22;14163;-26.142;27.992;2022-08-11T05:09:20;16.40;99.90
26479;DHT22;14163;-26.142;27.992;2022-08-11T05:12:21;16.50;99.90
26479;DHT22;14163;-26.142;27.992;2022-08-11T05:14:55;16.50;99.90
26479;DHT22;14163;-26.142;27.992;2022-08-11T05:17:44;16.60;99.90
26479;DHT22;14163;-26.142;27.992;2022-08-11T05:20:48;16.60;99.90
26479;DHT22;14163;-26.142;27.992;2022-08-11T05:23:38;16.60;99.90
26479;DHT22;14163;-26.142;27.992;2022-08-11T05:26:25;16.60;99.90
26479;DHT22;14163;-26.142;27.992;2022-08-11T05:29:29;16.70;99.90
26479;DHT22;14163;-26.142;27.992;2022-08-11T05:32:22;16.80;99.90
26479;DHT22;14163;-26.142;27.992;2022-08-11T05:35:08;16.90;99.90
26479;DHT22;14163;-26.142;27.992;2022-08-11T05:37:42;17.00;99.90
26479;DHT22;14163;-26.142;27.992;2022-08-11T05:40:30;17.10;99.90
26479;DHT22;14163;-26.142;27.992;2022-08-11T05:43:16;17.20;99.90
26479;DHT22;14163;-26.142;27.992;2022-08-11T05:46:04;17.20;99.90
26479;DHT22;14163;-26.142;27.992;2022-08-11T05:48:51;17.30;99.90
26479;DHT22;14163;-26.142;27.992;2022-08-11T05:51:39;17.40;99.90
26479;DHT22;14163;-26.142;27.992;2022-08-11T05:54:27;17.40;99.90
26479;DHT22;14163;-26.142;27.992;2022-08-11T05:57:19;17.50;99.90
26479;DHT22;14163;-26.142;27.992;2022-08-11T05:59:50;17.60;99.90
26479;DHT22;14163;-26.142;27.992;2022-08-11T06:02:27;17.70;99.90
26479;DHT22;14163;-26.142;27.992;2022-08-11T06:04:58;17.80;99.90
26479;DHT22;14163;-26.142;27.992;2022-08-11T06:07:30;17.90;99.10
26479;DHT22;14163;-26.142;27.992;2022-08-11T06:10:03;18.00;98.70
26479;DHT22;14163;-26.142;27.992;2022-08-11T06:12:34;18.10;98.50
26479;DHT22;14163;-26.142;27.992;2022-08-11T06:15:09;18.20;99.70
26479;DHT22;14163;-26.142;27.992;2022-08-11T06:17:44;18.30;99.90
26479;DHT22;14163;-26.142;27.992;2022-08-11T06:20:16;18.30;99.90
26479;DHT22;14163;-26.142;27.992;2022-08-11T06:22:56;18.40;99.90
26479;DHT22;14163;-26.142;27.992;2022-08-11T06:25:33;18.40;99.90
26479;DHT22;14163;-26.142;27.992;2022-08-11T06:28:06;18.40;99.80
26479;DHT22;14163;-26.142;27.992;2022-08-11T06:30:38;18.50;99.50
26479;DHT22;14163;-26.142;27.992;2022-08-11T06:33:11;18.50;99.30
26479;DHT22;14163;-26.142;27.992;2022-08-11T06:35:56;18.60;99.10
26479;DHT22;14163;-26.142;27.992;2022-08-11T06:38:40;18.60;99.70
26479;DHT22;14163;-26.142;27.992;2022-08-11T06:41:24;18.60;99.90
26479;DHT22;14163;-26.142;27.992;2022-08-11T06:44:14;18.60;99.90
26479;DHT22;14163;-26.142;27.992;2022-08-11T06:46:47;18.70;99.90
26479;DHT22;14163;-26.142;27.992;2022-08-11T06:49:19;18.70;99.90
26479;DHT22;14163;-26.142;27.992;2022-08-11T06:52:08;18.80;97.40
26479;DHT22;14163;-26.142;27.992;2022-08-11T06:54:42;18.70;95.90
26479;DHT22;14163;-26.142;27.992;2022-08-11T06:57:16;18.90;96.40
26479;DHT22;14163;-26.142;27.992;2022-08-11T07:00:04;19.00;94.70
26479;DHT22;14163;-26.142;27.992;2022-08-11T07:02:53;19.10;94.50
26479;DHT22;14163;-26.142;27.992;2022-08-11T07:05:38;19.30;93.60
26479;DHT22;14163;-26.142;27.992;2022-08-11T07:08:51;19.40;92.90
26479;DHT22;14163;-26.142;27.992;2022-08-11T07:12:08;19.50;92.60
26479;DHT22;14163;-26.142;27.992;2022-08-11T07:14:58;19.40;92.30
26479;DHT22;14163;-26.142;27.992;2022-08-11T07:17:53;19.40;92.70
26479;DHT22;14163;-26.142;27.992;2022-08-11T07:20:39;19.50;92.60
26479;DHT22;14163;-26.142;27.992;2022-08-11T07:23:25;19.70;92.20
26479;DHT22;14163;-26.142;27.992;2022-08-11T07:26:13;19.80;92.20
26479;DHT22;14163;-26.142;27.992;2022-08-11T07:29:00;19.90;92.10
26479;DHT22;14163;-26.142;27.992;2022-08-11T07:31:36;20.00;90.90
26479;DHT22;14163;-26.142;27.992;2022-08-11T07:34:16;19.90;91.70
26479;DHT22;14163;-26.142;27.992;2022-08-11T07:36:51;19.90;91.60
26479;DHT22;14163;-26.142;27.992;2022-08-11T07:39:24;19.90;91.80
26479;DHT22;14163;-26.142;27.992;2022-08-11T07:41:57;19.70;91.30
26479;DHT22;14163;-26.142;27.992;2022-08-11T07:44:28;19.80;91.50
26479;DHT22;14163;-26.142;27.992;2022-08-11T07:47:22;20.00;91.70
26479;DHT22;14163;-26.142;27.992;2022-08-11T07:50:09;20.10;91.50
26479;DHT22;14163;-26.142;27.992;2022-08-11T07:52:56;20.20;91.90
26479;DHT22;14163;-26.142;27.992;2022-08-11T07:55:27;20.10;91.70
26479;DHT22;14163;-26.142;27.992;2022-08-11T07:57:59;20.20;91.80
26479;DHT22;14163;-26.142;27.992;2022-08-11T08:00:46;20.10;91.70
26479;DHT22;14163;-26.142;27.992;2022-08-11T08:03:35;20.00;91.60
26479;DHT22;14163;-26.142;27.992;2022-08-11T08:06:22;20.00;91.20
26479;DHT22;14163;-26.142;27.992;2022-08-11T08:09:08;20.00;91.30
26479;DHT22;14163;-26.142;27.992;2022-08-11T08:11:56;20.20;91.30
26479;DHT22;14163;-26.142;27.992;2022-08-11T08:14:44;20.30;90.40
26479;DHT22;14163;-26.142;27.992;2022-08-11T08:17:30;20.30;88.90
26479;DHT22;14163;-26.142;27.992;2022-08-11T08:20:28;20.30;88.20
26479;DHT22;14163;-26.142;27.992;2022-08-11T08:22:59;20.40;87.20
26479;DHT22;14163;-26.142;27.992;2022-08-11T08:25:31;20.50;85.90
26479;DHT22;14163;-26.142;27.992;2022-08-11T08:28:03;20.80;85.90
26479;DHT22;14163;-26.142;27.992;2022-08-11T08:30:33;20.90;85.40
26479;DHT22;14163;-26.142;27.992;2022-08-11T08:33:16;20.80;86.60
26479;DHT22;14163;-26.142;27.992;2022-08-11T08:35:52;20.80;84.30
26479;DHT22;14163;-26.142;27.992;2022-08-11T08:38:38;20.80;85.50
26479;DHT22;14163;-26.142;27.992;2022-08-11T08:41:08;20.70;84.00
26479;DHT22;14163;-26.142;27.992;2022-08-11T08:43:40;20.90;85.00
26479;DHT22;14163;-26.142;27.992;2022-08-11T08:46:12;21.00;83.30
26479;DHT22;14163;-26.142;27.992;2022-08-11T08:48:43;21.10;82.30
26479;DHT22;14163;-26.142;27.992;2022-08-11T08:51:17;21.20;80.90
26479;DHT22;14163;-26.142;27.992;2022-08-11T08:54:06;21.30;82.00
26479;DHT22;14163;-26.142;27.992;2022-08-11T08:56:39;21.30;79.40
26479;DHT22;14163;-26.142;27.992;2022-08-11T08:59:11;21.40;78.40
26479;DHT22;14163;-26.142;27.992;2022-08-11T09:01:46;21.50;78.50
26479;DHT22;14163;-26.142;27.992;2022-08-11T09:04:17;21.60;77.70
26479;DHT22;14163;-26.142;27.992;2022-08-11T09:06:51;21.80;76.20
26479;DHT22;14163;-26.142;27.992;2022-08-11T09:09:22;21.90;74.20
26479;DHT22;14163;-26.142;27.992;2022-08-11T09:11:53;22.10;72.30
26479;DHT22;14163;-26.142;27.992;2022-08-11T09:14:25;22.30;71.00
26479;DHT22;14163;-26.142;27.992;2022-08-11T09:17:18;22.40;73.70
26479;DHT22;14163;-26.142;27.992;2022-08-11T09:19:50;22.40;72.50
26479;DHT22;14163;-26.142;27.992;2022-08-11T09:22:31;22.50;73.70
26479;DHT22;14163;-26.142;27.992;2022-08-11T09:25:17;22.50;70.80
26479;DHT22;14163;-26.142;27.992;2022-08-11T09:28:04;22.60;70.20
26479;DHT22;14163;-26.142;27.992;2022-08-11T09:30:34;22.90;70.30
26479;DHT22;14163;-26.142;27.992;2022-08-11T09:33:06;22.60;72.10
26479;DHT22;14163;-26.142;27.992;2022-08-11T09:35:41;22.70;72.30
26479;DHT22;14163;-26.142;27.992;2022-08-11T09:38:16;23.00;72.20
26479;DHT22;14163;-26.142;27.992;2022-08-11T09:41:03;23.30;70.70
26479;DHT22;14163;-26.142;27.992;2022-08-11T09:43:38;23.40;71.30
26479;DHT22;14163;-26.142;27.992;2022-08-11T09:46:26;24.00;70.60
26479;DHT22;14163;-26.142;27.992;2022-08-11T09:48:58;25.50;68.40
26479;DHT22;14163;-26.142;27.992;2022-08-11T09:51:30;26.60;65.40
26479;DHT22;14163;-26.142;27.992;2022-08-11T09:54:04;27.60;62.20
26479;DHT22;14163;-26.142;27.992;2022-08-11T09:56:34;28.70;59.80
26479;DHT22;14163;-26.142;27.992;2022-08-11T09:59:21;29.50;58.10
26479;DHT22;14163;-26.142;27.992;2022-08-11T10:01:55;30.20;56.60
26479;DHT22;14163;-26.142;27.992;2022-08-11T10:04:30;30.90;55.70
26479;DHT22;14163;-26.142;27.992;2022-08-11T10:07:03;31.80;53.80
26479;DHT22;14163;-26.142;27.992;2022-08-11T10:09:40;32.60;52.70
26479;DHT22;14163;-26.142;27.992;2022-08-11T10:12:16;33.20;50.80
26479;DHT22;14163;-26.142;27.992;2022-08-11T10:14:53;33.40;49.80
26479;DHT22;14163;-26.142;27.992;2022-08-11T10:17:43;33.30;49.30
26479;DHT22;14163;-26.142;27.992;2022-08-11T10:20:35;33.60;48.70
26479;DHT22;14163;-26.142;27.992;2022-08-11T10:23:09;34.30;47.90
26479;DHT22;14163;-26.142;27.992;2022-08-11T10:25:58;34.60;47.50
26479;DHT22;14163;-26.142;27.992;2022-08-11T10:28:44;34.10;46.60
26479;DHT22;14163;-26.142;27.992;2022-08-11T10:31:14;34.20;46.90
26479;DHT22;14163;-26.142;27.992;2022-08-11T10:34:01;34.30;46.90
26479;DHT22;14163;-26.142;27.992;2022-08-11T10:36:34;34.30;46.40
26479;DHT22;14163;-26.142;27.992;2022-08-11T10:39:09;34.30;46.60
26479;DHT22;14163;-26.142;27.992;2022-08-11T10:41:46;34.80;47.30
26479;DHT22;14163;-26.142;27.992;2022-08-11T10:44:37;34.70;46.10
26479;DHT22;14163;-26.142;27.992;2022-08-11T10:47:09;35.00;45.60
26479;DHT22;14163;-26.142;27.992;2022-08-11T10:49:56;35.00;45.50
26479;DHT22;14163;-26.142;27.992;2022-08-11T10:52:45;35.10;45.30
26479;DHT22;14163;-26.142;27.992;2022-08-11T10:55:34;35.20;45.20
26479;DHT22;14163;-26.142;27.992;2022-08-11T10:58:24;35.90;44.80
26479;DHT22;14163;-26.142;27.992;2022-08-11T11:01:11;36.10;44.10
26479;DHT22;14163;-26.142;27.992;2022-08-11T11:03:41;36.20;43.80
26479;DHT22;14163;-26.142;27.992;2022-08-11T11:06:21;36.70;43.60
26479;DHT22;14163;-26.142;27.992;2022-08-11T11:08:59;37.20;43.40
26479;DHT22;14163;-26.142;27.992;2022-08-11T11:11:33;37.70;42.60
26479;DHT22;14163;-26.142;27.992;2022-08-11T11:14:25;38.10;42.20
26479;DHT22;14163;-26.142;27.992;2022-08-11T11:17:13;38.60;41.70
26479;DHT22;14163;-26.142;27.992;2022-08-11T11:20:00;38.80;41.20
26479;DHT22;14163;-26.142;27.992;2022-08-11T11:22:32;38.20;41.10
26479;DHT22;14163;-26.142;27.992;2022-08-11T11:25:24;38.30;41.10
26479;DHT22;14163;-26.142;27.992;2022-08-11T11:28:25;38.30;41.20
26479;DHT22;14163;-26.142;27.992;2022-08-11T11:31:09;37.90;40.90
26479;DHT22;14163;-26.142;27.992;2022-08-11T11:34:03;36.80;41.60
26479;DHT22;14163;-26.142;27.992;2022-08-11T11:36:46;37.00;41.50
26479;DHT22;14163;-26.142;27.992;2022-08-11T11:39:18;37.20;41.40
26479;DHT22;14163;-26.142;27.992;2022-08-11T11:41:50;37.30;41.40
26479;DHT22;14163;-26.142;27.992;2022-08-11T11:44:21;37.10;41.80
26479;DHT22;14163;-26.142;27.992;2022-08-11T11:46:53;36.70;41.30
26479;DHT22;14163;-26.142;27.992;2022-08-11T11:49:26;35.90;41.60
26479;DHT22;14163;-26.142;27.992;2022-08-11T11:51:58;36.00;41.90
26479;DHT22;14163;-26.142;27.992;2022-08-11T11:54:31;36.00;41.50
26479;DHT22;14163;-26.142;27.992;2022-08-11T11:57:03;35.50;41.70
26479;DHT22;14163;-26.142;27.992;2022-08-11T11:59:45;34.70;42.70
26479;DHT22;14163;-26.142;27.992;2022-08-11T12:02:35;33.90;43.40
26479;DHT22;14163;-26.142;27.992;2022-08-11T12:05:05;33.10;43.70
26479;DHT22;14163;-26.142;27.992;2022-08-11T12:07:37;32.40;44.30
26479;DHT22;14163;-26.142;27.992;2022-08-11T12:10:24;32.00;45.30
26479;DHT22;14163;-26.142;27.992;2022-08-11T12:12:55;31.50;45.30
26479;DHT22;14163;-26.142;27.992;2022-08-11T12:15:44;30.60;45.40
26479;DHT22;14163;-26.142;27.992;2022-08-11T12:18:17;30.10;46.10
26479;DHT22;14163;-26.142;27.992;2022-08-11T12:20:48;29.90;47.00
26479;DHT22;14163;-26.142;27.992;2022-08-11T12:23:18;29.80;46.70
26479;DHT22;14163;-26.142;27.992;2022-08-11T12:26:03;29.90;46.40
26479;DHT22;14163;-26.142;27.992;2022-08-11T12:28:55;29.90;46.50
26479;DHT22;14163;-26.142;27.992;2022-08-11T12:31:25;29.60;47.30
26479;DHT22;14163;-26.142;27.992;2022-08-11T12:34:04;29.40;46.60
26479;DHT22;14163;-26.142;27.992;2022-08-11T12:36:36;29.40;46.90
26479;DHT22;14163;-26.142;27.992;2022-08-11T12:39:11;29.40;47.00
26479;DHT22;14163;-26.142;27.992;2022-08-11T12:41:41;29.30;46.90
26479;DHT22;14163;-26.142;27.992;2022-08-11T12:44:28;29.00;47.40
26479;DHT22;14163;-26.142;27.992;2022-08-11T12:47:16;28.90;47.30
26479;DHT22;14163;-26.142;27.992;2022-08-11T12:49:51;28.80;47.40
26479;DHT22;14163;-26.142;27.992;2022-08-11T12:52:44;28.60;47.60
26479;DHT22;14163;-26.142;27.992;2022-08-11T12:55:23;28.10;48.10
26479;DHT22;14163;-26.142;27.992;2022-08-11T12:58:07;27.80;48.20
26479;DHT22;14163;-26.142;27.992;2022-08-11T13:00:47;28.10;48.50
26479;DHT22;14163;-26.142;27.992;2022-08-11T13:03:34;28.20;48.40
26479;DHT22;14163;-26.142;27.992;2022-08-11T13:06:24;28.20;48.30
26479;DHT22;14163;-26.142;27.992;2022-08-11T13:08:55;28.40;48.30
26479;DHT22;14163;-26.142;27.992;2022-08-11T13:11:27;28.60;48.00
26479;DHT22;14163;-26.142;27.992;2022-08-11T13:14:13;28.70;47.80
26479;DHT22;14163;-26.142;27.992;2022-08-11T13:16:44;28.40;47.80
26479;DHT22;14163;-26.142;27.992;2022-08-11T13:19:32;28.50;47.70
26479;DHT22;14163;-26.142;27.992;2022-08-11T13:22:05;28.60;47.70
26479;DHT22;14163;-26.142;27.992;2022-08-11T13:24:35;28.50;47.60
26479;DHT22;14163;-26.142;27.992;2022-08-11T13:27:06;28.20;47.60
26479;DHT22;14163;-26.142;27.992;2022-08-11T13:29:41;28.00;47.60
26479;DHT22;14163;-26.142;27.992;2022-08-11T13:32:13;28.00;47.40
26479;DHT22;14163;-26.142;27.992;2022-08-11T13:34:44;27.90;47.50
26479;DHT22;14163;-26.142;27.992;2022-08-11T13:37:19;27.90;48.00
26479;DHT22;14163;-26.142;27.992;2022-08-11T13:39:49;27.90;48.20
26479;DHT22;14163;-26.142;27.992;2022-08-11T13:42:20;28.00;47.90
26479;DHT22;14163;-26.142;27.992;2022-08-11T13:44:50;28.10;49.10
26479;DHT22;14163;-26.142;27.992;2022-08-11T13:47:22;28.10;47.90
26479;DHT22;14163;-26.142;27.992;2022-08-11T13:49:53;28.20;48.10
26479;DHT22;14163;-26.142;27.992;2022-08-11T13:52:26;28.30;48.10
26479;DHT22;14163;-26.142;27.992;2022-08-11T13:54:57;28.00;47.50
26479;DHT22;14163;-26.142;27.992;2022-08-11T13:57:30;27.90;48.00
26479;DHT22;14163;-26.142;27.992;2022-08-11T14:00:02;28.00;48.10
26479;DHT22;14163;-26.142;27.992;2022-08-11T14:02:40;27.90;47.40
26479;DHT22;14163;-26.142;27.992;2022-08-11T14:05:14;27.60;47.90
26479;DHT22;14163;-26.142;27.992;2022-08-11T14:07:49;27.50;48.30
26479;DHT22;14163;-26.142;27.992;2022-08-11T14:10:21;27.30;48.00
26479;DHT22;14163;-26.142;27.992;2022-08-11T14:12:57;27.20;47.70
26479;DHT22;14163;-26.142;27.992;2022-08-11T14:15:45;27.00;48.20
26479;DHT22;14163;-26.142;27.992;2022-08-11T14:18:19;27.10;48.40
26479;DHT22;14163;-26.142;27.992;2022-08-11T14:20:53;27.20;48.20
26479;DHT22;14163;-26.142;27.992;2022-08-11T14:23:42;27.40;48.10
26479;DHT22;14163;-26.142;27.992;2022-08-11T14:26:16;27.30;48.10
26479;DHT22;14163;-26.142;27.992;2022-08-11T14:28:53;27.20;48.30
26479;DHT22;14163;-26.142;27.992;2022-08-11T14:31:24;27.20;48.40
26479;DHT22;14163;-26.142;27.992;2022-08-11T14:33:56;27.20;48.30
26479;DHT22;14163;-26.142;27.992;2022-08-11T14:36:30;27.30;48.40
26479;DHT22;14163;-26.142;27.992;2022-08-11T14:39:07;27.40;48.50
26479;DHT22;14163;-26.142;27.992;2022-08-11T14:41:40;27.40;48.60
26479;DHT22;14163;-26.142;27.992;2022-08-11T14:44:26;27.30;48.90
26479;DHT22;14163;-26.142;27.992;2022-08-11T14:47:12;26.90;48.90
26479;DHT22;14163;-26.142;27.992;2022-08-11T14:49:43;26.70;49.70
26479;DHT22;14163;-26.142;27.992;2022-08-11T14:52:15;26.50;49.60
26479;DHT22;14163;-26.142;27.992;2022-08-11T14:54:50;26.50;49.90
26479;DHT22;14163;-26.142;27.992;2022-08-11T14:57:38;26.40;49.80
26479;DHT22;14163;-26.142;27.992;2022-08-11T15:00:12;26.60;49.90
26479;DHT22;14163;-26.142;27.992;2022-08-11T15:02:46;26.60;49.80
26479;DHT22;14163;-26.142;27.992;2022-08-11T15:05:33;26.60;50.00
26479;DHT22;14163;-26.142;27.992;2022-08-11T15:08:04;26.70;50.20
26479;DHT22;14163;-26.142;27.992;2022-08-11T15:10:37;26.80;50.10
26479;DHT22;14163;-26.142;27.992;2022-08-11T15:13:10;26.70;50.10
26479;DHT22;14163;-26.142;27.992;2022-08-11T15:15:42;26.60;50.40
26479;DHT22;14163;-26.142;27.992;2022-08-11T15:18:29;26.50;50.60
26479;DHT22;14163;-26.142;27.992;2022-08-11T15:21:00;26.60;50.70
26479;DHT22;14163;-26.142;27.992;2022-08-11T15:23:46;26.50;50.60
26479;DHT22;14163;-26.142;27.992;2022-08-11T15:26:38;26.40;50.90
26479;DHT22;14163;-26.142;27.992;2022-08-11T15:29:29;26.20;50.90
26479;DHT22;14163;-26.142;27.992;2022-08-11T15:32:16;26.10;51.20
26479;DHT22;14163;-26.142;27.992;2022-08-11T15:35:04;25.20;51.40
26479;DHT22;14163;-26.142;27.992;2022-08-11T15:37:55;25.90;51.50
26479;DHT22;14163;-26.142;27.992;2022-08-11T15:40:29;25.90;51.50
26479;DHT22;14163;-26.142;27.992;2022-08-11T15:43:21;25.80;51.60
26479;DHT22;14163;-26.142;27.992;2022-08-11T15:46:11;25.60;51.80
26479;DHT22;14163;-26.142;27.992;2022-08-11T15:48:44;25.40;52.10
26479;DHT22;14163;-26.142;27.992;2022-08-11T15:51:18;25.30;52.20
26479;DHT22;14163;-26.142;27.992;2022-08-11T15:53:52;25.40;52.20
26479;DHT22;14163;-26.142;27.992;2022-08-11T15:56:23;25.40;52.10
26479;DHT22;14163;-26.142;27.992;2022-08-11T15:58:59;25.30;52.30
26479;DHT22;14163;-26.142;27.992;2022-08-11T16:01:47;25.10;52.40
26479;DHT22;14163;-26.142;27.992;2022-08-11T16:04:35;25.10;52.40
26479;DHT22;14163;-26.142;27.992;2022-08-11T16:07:06;25.10;52.30
26479;DHT22;14163;-26.142;27.992;2022-08-11T16:09:41;25.00;52.50
26479;DHT22;14163;-26.142;27.992;2022-08-11T16:12:15;24.80;52.50
26479;DHT22;14163;-26.142;27.992;2022-08-11T16:14:50;24.70;53.10
26479;DHT22;14163;-26.142;27.992;2022-08-11T16:17:39;24.80;52.50
26479;DHT22;14163;-26.142;27.992;2022-08-11T16:20:12;24.90;52.90
26479;DHT22;14163;-26.142;27.992;2022-08-11T16:22:42;25.00;53.30
26479;DHT22;14163;-26.142;27.992;2022-08-11T16:25:16;25.00;53.00
26479;DHT22;14163;-26.142;27.992;2022-08-11T16:27:48;25.00;52.70
26479;DHT22;14163;-26.142;27.992;2022-08-11T16:30:20;25.20;53.90
26479;DHT22;14163;-26.142;27.992;2022-08-11T16:32:51;25.30;53.40
26479;DHT22;14163;-26.142;27.992;2022-08-11T16:35:24;25.40;53.40
26479;DHT22;14163;-26.142;27.992;2022-08-11T16:38:10;25.30;53.10
26479;DHT22;14163;-26.142;27.992;2022-08-11T16:40:58;25.40;53.80
26479;DHT22;14163;-26.142;27.992;2022-08-11T16:43:43;25.40;54.50
26479;DHT22;14163;-26.142;27.992;2022-08-11T16:46:34;25.30;53.50
26479;DHT22;14163;-26.142;27.992;2022-08-11T16:49:25;25.30;55.00
26479;DHT22;14163;-26.142;27.992;2022-08-11T16:51:54;25.30;54.10
26479;DHT22;14163;-26.142;27.992;2022-08-11T16:54:31;25.20;54.20
26479;DHT22;14163;-26.142;27.992;2022-08-11T16:57:04;25.20;53.80
26479;DHT22;14163;-26.142;27.992;2022-08-11T16:59:50;25.10;53.40
26479;DHT22;14163;-26.142;27.992;2022-08-11T17:02:27;25.00;53.90
26479;DHT22;14163;-26.142;27.992;2022-08-11T17:05:17;24.90;54.10
26479;DHT22;14163;-26.142;27.992;2022-08-11T17:08:05;24.90;55.30
26479;DHT22;14163;-26.142;27.992;2022-08-11T17:10:55;24.80;55.00
26479;DHT22;14163;-26.142;27.992;2022-08-11T17:13:45;24.80;55.50
26479;DHT22;14163;-26.142;27.992;2022-08-11T17:16:19;24.80;54.60
26479;DHT22;14163;-26.142;27.992;2022-08-11T17:18:57;24.80;54.40
26479;DHT22;14163;-26.142;27.992;2022-08-11T17:21:30;24.70;54.00
26479;DHT22;14163;-26.142;27.992;2022-08-11T17:24:05;24.70;54.50
26479;DHT22;14163;-26.142;27.992;2022-08-11T17:26:40;24.60;54.90
26479;DHT22;14163;-26.142;27.992;2022-08-11T17:29:28;24.50;55.60